Main page
METAR-TAF:

METAR-TAF

Airports :

Roben–Hood Airport

Big Rapids, Michigan, United States

latitude: 43-43-21N, longitude: 085-30-15W, elevation: 302 m

Current weather observation

The report was made 19 minutes ago, at 18:55 UTC
Wind 12 kt from the East/Southeast with gusts up to 17 kt
Temperature 24°C
Humidity 38%
Pressure 1021 hPa
Visibility: 16.1 km
Clear sky

METAR: KRQB 151855Z AUTO 12012G17KT 10SM CLR 24/09 A3016 RMK AO2 T02420092

Time: 15:14 (19:14 UTC)


TAF: missing

Weather observations and forecasts of more than 4000 airports (METAR and TAF reports).

The available stations are represented by yellow and red dots on the map.

Hover mouse over dot to see the name of the station.

Then click to see weather observations and forecasts.

To change the map : click on the green buttons with a black cross to zoom in, on the green button with a dash to zoom out, or on the green arrows for adjacent maps.


METAR-TAF: